sensor_id;sensor_type;location;lat;lon;timestamp;P1;durP1;ratioP1;P2;durP2;ratioP2
27576;SDS011;15011;53.380;10.034;2022-08-19T00:00:50;9.20;;;4.93;;
27576;SDS011;15011;53.380;10.034;2022-08-19T00:05:50;9.30;;;5.38;;
27576;SDS011;15011;53.380;10.034;2022-08-19T00:10:51;7.15;;;4.43;;
27576;SDS011;15011;53.380;10.034;2022-08-19T00:15:52;8.10;;;5.68;;
27576;SDS011;15011;53.380;10.034;2022-08-19T00:20:52;9.73;;;5.20;;
27576;SDS011;15011;53.380;10.034;2022-08-19T00:25:53;7.20;;;5.47;;
27576;SDS011;15011;53.380;10.034;2022-08-19T00:30:53;6.78;;;4.93;;
27576;SDS011;15011;53.380;10.034;2022-08-19T00:35:54;8.90;;;5.43;;
27576;SDS011;15011;53.380;10.034;2022-08-19T00:40:55;9.30;;;5.80;;
27576;SDS011;15011;53.380;10.034;2022-08-19T00:45:56;7.72;;;4.90;;
27576;SDS011;15011;53.380;10.034;2022-08-19T00:50:57;11.32;;;7.63;;
27576;SDS011;15011;53.380;10.034;2022-08-19T00:55:58;8.45;;;6.13;;
27576;SDS011;15011;53.380;10.034;2022-08-19T01:01:00;14.15;;;7.53;;
27576;SDS011;15011;53.380;10.034;2022-08-19T01:11:02;12.20;;;7.37;;
27576;SDS011;15011;53.380;10.034;2022-08-19T01:16:09;11.88;;;6.50;;
27576;SDS011;15011;53.380;10.034;2022-08-19T01:26:50;8.63;;;5.22;;
27576;SDS011;15011;53.380;10.034;2022-08-19T01:31:50;8.55;;;5.70;;
27576;SDS011;15011;53.380;10.034;2022-08-19T01:36:53;12.52;;;6.07;;
27576;SDS011;15011;53.380;10.034;2022-08-19T01:41:53;7.85;;;5.32;;
27576;SDS011;15011;53.380;10.034;2022-08-19T01:46:54;11.48;;;5.90;;
27576;SDS011;15011;53.380;10.034;2022-08-19T01:51:55;11.23;;;5.80;;
27576;SDS011;15011;53.380;10.034;2022-08-19T01:56:58;11.55;;;5.97;;
27576;SDS011;15011;53.380;10.034;2022-08-19T02:02:03;11.75;;;6.53;;
27576;SDS011;15011;53.380;10.034;2022-08-19T02:07:06;10.38;;;5.43;;
27576;SDS011;15011;53.380;10.034;2022-08-19T02:12:08;11.17;;;6.03;;
27576;SDS011;15011;53.380;10.034;2022-08-19T02:17:08;10.35;;;6.95;;
27576;SDS011;15011;53.380;10.034;2022-08-19T02:22:09;12.73;;;6.67;;
27576;SDS011;15011;53.380;10.034;2022-08-19T02:27:09;11.90;;;7.60;;
27576;SDS011;15011;53.380;10.034;2022-08-19T02:32:10;15.25;;;7.53;;
27576;SDS011;15011;53.380;10.034;2022-08-19T02:37:10;12.20;;;7.33;;
27576;SDS011;15011;53.380;10.034;2022-08-19T02:42:30;15.25;;;8.00;;
27576;SDS011;15011;53.380;10.034;2022-08-19T02:47:32;13.17;;;8.93;;
27576;SDS011;15011;53.380;10.034;2022-08-19T02:52:33;19.33;;;8.30;;
27576;SDS011;15011;53.380;10.034;2022-08-19T02:57:33;14.83;;;9.03;;
27576;SDS011;15011;53.380;10.034;2022-08-19T03:02:34;13.35;;;8.23;;
27576;SDS011;15011;53.380;10.034;2022-08-19T03:07:35;18.15;;;9.10;;
27576;SDS011;15011;53.380;10.034;2022-08-19T03:12:37;16.67;;;8.57;;
27576;SDS011;15011;53.380;10.034;2022-08-19T03:17:37;14.75;;;9.13;;
27576;SDS011;15011;53.380;10.034;2022-08-19T03:22:38;24.87;;;10.63;;
27576;SDS011;15011;53.380;10.034;2022-08-19T03:27:38;19.70;;;9.18;;
27576;SDS011;15011;53.380;10.034;2022-08-19T03:32:39;17.40;;;9.98;;
27576;SDS011;15011;53.380;10.034;2022-08-19T03:37:39;25.42;;;10.82;;
27576;SDS011;15011;53.380;10.034;2022-08-19T03:42:41;19.50;;;9.97;;
27576;SDS011;15011;53.380;10.034;2022-08-19T03:47:42;22.15;;;12.75;;
27576;SDS011;15011;53.380;10.034;2022-08-19T03:52:42;21.60;;;11.32;;
27576;SDS011;15011;53.380;10.034;2022-08-19T03:57:48;19.92;;;12.60;;
27576;SDS011;15011;53.380;10.034;2022-08-19T04:02:48;29.02;;;13.52;;
27576;SDS011;15011;53.380;10.034;2022-08-19T04:07:49;28.30;;;11.52;;
27576;SDS011;15011;53.380;10.034;2022-08-19T04:12:49;24.20;;;11.77;;
27576;SDS011;15011;53.380;10.034;2022-08-19T04:17:50;33.35;;;15.15;;
27576;SDS011;15011;53.380;10.034;2022-08-19T04:22:50;27.67;;;14.32;;
27576;SDS011;15011;53.380;10.034;2022-08-19T04:27:51;28.73;;;13.75;;
27576;SDS011;15011;53.380;10.034;2022-08-19T04:32:51;25.13;;;13.02;;
27576;SDS011;15011;53.380;10.034;2022-08-19T04:37:51;23.88;;;12.77;;
27576;SDS011;15011;53.380;10.034;2022-08-19T04:42:52;39.58;;;19.15;;
27576;SDS011;15011;53.380;10.034;2022-08-19T04:47:54;35.90;;;16.75;;
27576;SDS011;15011;53.380;10.034;2022-08-19T04:52:56;34.47;;;18.13;;
27576;SDS011;15011;53.380;10.034;2022-08-19T04:57:56;42.30;;;19.65;;
27576;SDS011;15011;53.380;10.034;2022-08-19T05:02:57;31.48;;;16.70;;
27576;SDS011;15011;53.380;10.034;2022-08-19T05:07:57;37.42;;;17.52;;
27576;SDS011;15011;53.380;10.034;2022-08-19T05:12:58;33.47;;;15.85;;
27576;SDS011;15011;53.380;10.034;2022-08-19T05:17:58;31.98;;;18.10;;
27576;SDS011;15011;53.380;10.034;2022-08-19T05:23:17;36.67;;;19.38;;
27576;SDS011;15011;53.380;10.034;2022-08-19T05:28:19;40.10;;;20.23;;
27576;SDS011;15011;53.380;10.034;2022-08-19T05:33:20;41.78;;;21.65;;
27576;SDS011;15011;53.380;10.034;2022-08-19T05:38:20;40.33;;;21.38;;
27576;SDS011;15011;53.380;10.034;2022-08-19T05:43:21;40.13;;;22.05;;
27576;SDS011;15011;53.380;10.034;2022-08-19T05:48:21;36.70;;;19.67;;
27576;SDS011;15011;53.380;10.034;2022-08-19T05:53:22;40.25;;;21.52;;
27576;SDS011;15011;53.380;10.034;2022-08-19T05:58:22;46.97;;;23.05;;
27576;SDS011;15011;53.380;10.034;2022-08-19T06:03:24;35.33;;;19.33;;
27576;SDS011;15011;53.380;10.034;2022-08-19T06:08:27;43.33;;;22.05;;
27576;SDS011;15011;53.380;10.034;2022-08-19T06:13:28;39.92;;;22.23;;
27576;SDS011;15011;53.380;10.034;2022-08-19T06:18:28;41.00;;;21.85;;
27576;SDS011;15011;53.380;10.034;2022-08-19T06:23:29;37.67;;;20.42;;
27576;SDS011;15011;53.380;10.034;2022-08-19T06:28:30;38.03;;;21.03;;
27576;SDS011;15011;53.380;10.034;2022-08-19T06:33:33;43.53;;;22.63;;
27576;SDS011;15011;53.380;10.034;2022-08-19T06:38:33;52.00;;;24.90;;
27576;SDS011;15011;53.380;10.034;2022-08-19T06:43:34;52.30;;;24.27;;
27576;SDS011;15011;53.380;10.034;2022-08-19T06:48:36;51.92;;;25.05;;
27576;SDS011;15011;53.380;10.034;2022-08-19T06:53:36;45.58;;;23.48;;
27576;SDS011;15011;53.380;10.034;2022-08-19T06:58:39;47.35;;;24.20;;
27576;SDS011;15011;53.380;10.034;2022-08-19T07:03:40;48.60;;;25.35;;
27576;SDS011;15011;53.380;10.034;2022-08-19T07:08:40;38.85;;;22.15;;
27576;SDS011;15011;53.380;10.034;2022-08-19T07:13:42;43.33;;;24.67;;
27576;SDS011;15011;53.380;10.034;2022-08-19T07:18:43;41.50;;;22.88;;
27576;SDS011;15011;53.380;10.034;2022-08-19T07:23:44;38.08;;;20.75;;
27576;SDS011;15011;53.380;10.034;2022-08-19T07:28:46;33.10;;;19.00;;
27576;SDS011;15011;53.380;10.034;2022-08-19T07:33:48;37.92;;;19.27;;
27576;SDS011;15011;53.380;10.034;2022-08-19T07:38:50;40.65;;;17.45;;
27576;SDS011;15011;53.380;10.034;2022-08-19T07:43:52;39.83;;;17.03;;
27576;SDS011;15011;53.380;10.034;2022-08-19T07:48:53;34.53;;;15.07;;
27576;SDS011;15011;53.380;10.034;2022-08-19T07:53:53;34.63;;;14.50;;
27576;SDS011;15011;53.380;10.034;2022-08-19T07:58:54;36.15;;;15.98;;
27576;SDS011;15011;53.380;10.034;2022-08-19T08:03:55;25.15;;;14.77;;
27576;SDS011;15011;53.380;10.034;2022-08-19T08:09:20;30.10;;;13.13;;
27576;SDS011;15011;53.380;10.034;2022-08-19T08:14:31;34.13;;;16.25;;
27576;SDS011;15011;53.380;10.034;2022-08-19T08:19:35;29.30;;;14.82;;
27576;SDS011;15011;53.380;10.034;2022-08-19T08:24:37;31.17;;;14.52;;
27576;SDS011;15011;53.380;10.034;2022-08-19T08:29:37;38.42;;;16.30;;
27576;SDS011;15011;53.380;10.034;2022-08-19T08:34:38;33.58;;;14.07;;
27576;SDS011;15011;53.380;10.034;2022-08-19T08:39:38;39.63;;;17.07;;
27576;SDS011;15011;53.380;10.034;2022-08-19T08:44:44;33.72;;;16.33;;
27576;SDS011;15011;53.380;10.034;2022-08-19T08:49:51;35.15;;;16.00;;
27576;SDS011;15011;53.380;10.034;2022-08-19T08:54:57;35.30;;;16.27;;
27576;SDS011;15011;53.380;10.034;2022-08-19T09:00:00;30.55;;;15.63;;
27576;SDS011;15011;53.380;10.034;2022-08-19T09:05:05;43.42;;;19.05;;
27576;SDS011;15011;53.380;10.034;2022-08-19T09:15:18;30.88;;;16.15;;
27576;SDS011;15011;53.380;10.034;2022-08-19T09:20:23;35.03;;;18.02;;
27576;SDS011;15011;53.380;10.034;2022-08-19T09:25:24;33.33;;;18.17;;
27576;SDS011;15011;53.380;10.034;2022-08-19T09:30:27;33.33;;;18.63;;
27576;SDS011;15011;53.380;10.034;2022-08-19T09:35:28;41.20;;;18.45;;
27576;SDS011;15011;53.380;10.034;2022-08-19T09:40:30;37.07;;;19.57;;
27576;SDS011;15011;53.380;10.034;2022-08-19T09:45:31;35.67;;;19.27;;
27576;SDS011;15011;53.380;10.034;2022-08-19T09:50:32;34.92;;;19.13;;
27576;SDS011;15011;53.380;10.034;2022-08-19T09:55:34;33.90;;;18.90;;
27576;SDS011;15011;53.380;10.034;2022-08-19T10:00:34;38.70;;;19.80;;
27576;SDS011;15011;53.380;10.034;2022-08-19T10:05:37;40.70;;;18.60;;
27576;SDS011;15011;53.380;10.034;2022-08-19T10:15:51;39.70;;;20.38;;
27576;SDS011;15011;53.380;10.034;2022-08-19T10:21:01;32.50;;;17.83;;
27576;SDS011;15011;53.380;10.034;2022-08-19T10:26:05;37.45;;;21.95;;
27576;SDS011;15011;53.380;10.034;2022-08-19T10:31:08;30.10;;;18.30;;
27576;SDS011;15011;53.380;10.034;2022-08-19T10:36:31;32.67;;;20.37;;
27576;SDS011;15011;53.380;10.034;2022-08-19T10:41:34;38.85;;;19.30;;
27576;SDS011;15011;53.380;10.034;2022-08-19T10:46:38;31.27;;;19.17;;
27576;SDS011;15011;53.380;10.034;2022-08-19T10:51:41;27.98;;;17.38;;
27576;SDS011;15011;53.380;10.034;2022-08-19T10:57:00;27.20;;;17.52;;
27576;SDS011;15011;53.380;10.034;2022-08-19T11:02:01;26.42;;;18.92;;
27576;SDS011;15011;53.380;10.034;2022-08-19T11:07:03;33.38;;;21.60;;
27576;SDS011;15011;53.380;10.034;2022-08-19T11:12:04;34.20;;;22.73;;
27576;SDS011;15011;53.380;10.034;2022-08-19T11:17:05;35.53;;;24.50;;
27576;SDS011;15011;53.380;10.034;2022-08-19T11:22:07;33.88;;;23.42;;
27576;SDS011;15011;53.380;10.034;2022-08-19T11:27:09;37.15;;;25.15;;
27576;SDS011;15011;53.380;10.034;2022-08-19T11:32:10;34.53;;;24.48;;
27576;SDS011;15011;53.380;10.034;2022-08-19T11:37:11;36.50;;;26.53;;
27576;SDS011;15011;53.380;10.034;2022-08-19T11:42:11;40.00;;;29.37;;
27576;SDS011;15011;53.380;10.034;2022-08-19T11:47:30;41.25;;;28.10;;
27576;SDS011;15011;53.380;10.034;2022-08-19T11:52:32;31.95;;;23.30;;
27576;SDS011;15011;53.380;10.034;2022-08-19T11:57:32;35.13;;;26.33;;
27576;SDS011;15011;53.380;10.034;2022-08-19T12:02:33;33.03;;;25.08;;
27576;SDS011;15011;53.380;10.034;2022-08-19T12:07:34;33.35;;;25.73;;
27576;SDS011;15011;53.380;10.034;2022-08-19T12:17:37;31.58;;;24.02;;
27576;SDS011;15011;53.380;10.034;2022-08-19T12:22:38;34.25;;;22.75;;
27576;SDS011;15011;53.380;10.034;2022-08-19T12:27:41;22.08;;;17.50;;
27576;SDS011;15011;53.380;10.034;2022-08-19T12:32:41;19.20;;;15.52;;
27576;SDS011;15011;53.380;10.034;2022-08-19T12:37:42;23.98;;;17.50;;
27576;SDS011;15011;53.380;10.034;2022-08-19T12:42:44;21.20;;;17.02;;
27576;SDS011;15011;53.380;10.034;2022-08-19T12:47:45;21.50;;;17.17;;
27576;SDS011;15011;53.380;10.034;2022-08-19T12:52:46;24.23;;;20.43;;
27576;SDS011;15011;53.380;10.034;2022-08-19T12:57:48;21.30;;;18.08;;
27576;SDS011;15011;53.380;10.034;2022-08-19T13:02:49;24.27;;;20.40;;
27576;SDS011;15011;53.380;10.034;2022-08-19T13:07:51;15.57;;;13.48;;
27576;SDS011;15011;53.380;10.034;2022-08-19T13:12:56;19.17;;;14.65;;
27576;SDS011;15011;53.380;10.034;2022-08-19T13:17:59;17.73;;;12.88;;
27576;SDS011;15011;53.380;10.034;2022-08-19T13:23:00;20.57;;;13.87;;
27576;SDS011;15011;53.380;10.034;2022-08-19T13:28:00;18.67;;;15.30;;
27576;SDS011;15011;53.380;10.034;2022-08-19T13:33:00;16.53;;;11.90;;
27576;SDS011;15011;53.380;10.034;2022-08-19T13:38:17;16.70;;;14.07;;
27576;SDS011;15011;53.380;10.034;2022-08-19T13:43:21;16.63;;;13.82;;
27576;SDS011;15011;53.380;10.034;2022-08-19T13:48:24;16.58;;;13.98;;
27576;SDS011;15011;53.380;10.034;2022-08-19T13:53:26;14.60;;;12.07;;
27576;SDS011;15011;53.380;10.034;2022-08-19T13:58:26;14.60;;;12.23;;
27576;SDS011;15011;53.380;10.034;2022-08-19T14:03:27;13.93;;;10.80;;
27576;SDS011;15011;53.380;10.034;2022-08-19T14:08:27;14.53;;;11.93;;
27576;SDS011;15011;53.380;10.034;2022-08-19T14:13:29;13.25;;;10.32;;
27576;SDS011;15011;53.380;10.034;2022-08-19T14:18:29;12.30;;;9.50;;
27576;SDS011;15011;53.380;10.034;2022-08-19T14:23:30;14.43;;;10.80;;
27576;SDS011;15011;53.380;10.034;2022-08-19T14:28:31;15.02;;;11.80;;
27576;SDS011;15011;53.380;10.034;2022-08-19T14:33:32;12.33;;;9.00;;
27576;SDS011;15011;53.380;10.034;2022-08-19T14:38:32;11.60;;;9.97;;
27576;SDS011;15011;53.380;10.034;2022-08-19T14:48:34;11.43;;;8.15;;
27576;SDS011;15011;53.380;10.034;2022-08-19T14:58:37;10.40;;;8.98;;
27576;SDS011;15011;53.380;10.034;2022-08-19T15:03:40;12.35;;;9.10;;
27576;SDS011;15011;53.380;10.034;2022-08-19T15:08:41;10.17;;;7.67;;
27576;SDS011;15011;53.380;10.034;2022-08-19T15:18:45;11.60;;;8.90;;
27576;SDS011;15011;53.380;10.034;2022-08-19T15:23:47;8.85;;;7.65;;
27576;SDS011;15011;53.380;10.034;2022-08-19T15:28:49;12.25;;;8.63;;
27576;SDS011;15011;53.380;10.034;2022-08-19T15:33:49;12.93;;;10.07;;
27576;SDS011;15011;53.380;10.034;2022-08-19T15:38:50;12.30;;;9.13;;
27576;SDS011;15011;53.380;10.034;2022-08-19T15:43:53;11.70;;;9.60;;
27576;SDS011;15011;53.380;10.034;2022-08-19T15:48:55;13.77;;;9.75;;
27576;SDS011;15011;53.380;10.034;2022-08-19T15:53:57;10.67;;;8.77;;
27576;SDS011;15011;53.380;10.034;2022-08-19T15:58:58;7.95;;;6.82;;
27576;SDS011;15011;53.380;10.034;2022-08-19T16:04:17;11.90;;;9.18;;
27576;SDS011;15011;53.380;10.034;2022-08-19T16:09:36;8.93;;;8.02;;
27576;SDS011;15011;53.380;10.034;2022-08-19T16:14:37;11.97;;;8.93;;
27576;SDS011;15011;53.380;10.034;2022-08-19T16:19:38;10.90;;;9.10;;
27576;SDS011;15011;53.380;10.034;2022-08-19T16:24:39;7.75;;;6.78;;
27576;SDS011;15011;53.380;10.034;2022-08-19T16:29:40;7.37;;;6.23;;
27576;SDS011;15011;53.380;10.034;2022-08-19T16:34:40;9.93;;;8.07;;
27576;SDS011;15011;53.380;10.034;2022-08-19T16:39:41;7.53;;;6.73;;
27576;SDS011;15011;53.380;10.034;2022-08-19T16:44:42;10.23;;;6.80;;
27576;SDS011;15011;53.380;10.034;2022-08-19T16:49:44;8.10;;;6.55;;
27576;SDS011;15011;53.380;10.034;2022-08-19T16:54:45;8.77;;;5.90;;
27576;SDS011;15011;53.380;10.034;2022-08-19T16:59:46;7.23;;;5.13;;
27576;SDS011;15011;53.380;10.034;2022-08-19T17:04:48;5.32;;;4.80;;
27576;SDS011;15011;53.380;10.034;2022-08-19T17:09:49;8.73;;;5.03;;
27576;SDS011;15011;53.380;10.034;2022-08-19T17:14:49;6.80;;;5.23;;
27576;SDS011;15011;53.380;10.034;2022-08-19T17:19:50;7.13;;;5.00;;
27576;SDS011;15011;53.380;10.034;2022-08-19T17:24:52;7.50;;;5.30;;
27576;SDS011;15011;53.380;10.034;2022-08-19T17:29:52;6.60;;;4.93;;
27576;SDS011;15011;53.380;10.034;2022-08-19T17:34:53;5.83;;;5.20;;
27576;SDS011;15011;53.380;10.034;2022-08-19T17:39:53;5.43;;;4.90;;
27576;SDS011;15011;53.380;10.034;2022-08-19T17:44:54;6.13;;;4.70;;
27576;SDS011;15011;53.380;10.034;2022-08-19T17:49:58;5.97;;;5.43;;
27576;SDS011;15011;53.380;10.034;2022-08-19T17:54:59;8.73;;;5.43;;
27576;SDS011;15011;53.380;10.034;2022-08-19T17:59:59;6.88;;;6.07;;
27576;SDS011;15011;53.380;10.034;2022-08-19T18:05:02;7.47;;;6.63;;
27576;SDS011;15011;53.380;10.034;2022-08-19T18:10:03;8.52;;;5.68;;
27576;SDS011;15011;53.380;10.034;2022-08-19T18:15:05;7.75;;;6.30;;
27576;SDS011;15011;53.380;10.034;2022-08-19T18:20:09;8.10;;;6.78;;
27576;SDS011;15011;53.380;10.034;2022-08-19T18:25:15;7.45;;;5.95;;
27576;SDS011;15011;53.380;10.034;2022-08-19T18:30:25;7.45;;;6.13;;
27576;SDS011;15011;53.380;10.034;2022-08-19T18:35:27;10.18;;;6.55;;
27576;SDS011;15011;53.380;10.034;2022-08-19T18:45:48;10.80;;;6.93;;
27576;SDS011;15011;53.380;10.034;2022-08-19T18:51:07;10.95;;;6.75;;
27576;SDS011;15011;53.380;10.034;2022-08-19T18:56:09;7.95;;;7.15;;
27576;SDS011;15011;53.380;10.034;2022-08-19T19:01:21;7.55;;;6.00;;
27576;SDS011;15011;53.380;10.034;2022-08-19T19:06:26;8.63;;;6.60;;
27576;SDS011;15011;53.380;10.034;2022-08-19T19:11:30;13.48;;;11.32;;
27576;SDS011;15011;53.380;10.034;2022-08-19T19:16:33;7.65;;;6.45;;
27576;SDS011;15011;53.380;10.034;2022-08-19T19:21:34;7.63;;;6.83;;
27576;SDS011;15011;53.380;10.034;2022-08-19T19:26:34;8.13;;;7.05;;
27576;SDS011;15011;53.380;10.034;2022-08-19T19:31:36;11.52;;;7.55;;
27576;SDS011;15011;53.380;10.034;2022-08-19T19:36:36;8.40;;;7.15;;
27576;SDS011;15011;53.380;10.034;2022-08-19T19:41:37;9.65;;;7.80;;
27576;SDS011;15011;53.380;10.034;2022-08-19T19:46:38;8.73;;;7.50;;
27576;SDS011;15011;53.380;10.034;2022-08-19T19:51:39;11.63;;;9.52;;
27576;SDS011;15011;53.380;10.034;2022-08-19T19:56:41;13.80;;;10.75;;
27576;SDS011;15011;53.380;10.034;2022-08-19T20:01:45;10.38;;;8.98;;
27576;SDS011;15011;53.380;10.034;2022-08-19T20:06:45;13.48;;;10.52;;
27576;SDS011;15011;53.380;10.034;2022-08-19T20:11:51;15.27;;;11.18;;
27576;SDS011;15011;53.380;10.034;2022-08-19T20:16:53;9.82;;;8.52;;
27576;SDS011;15011;53.380;10.034;2022-08-19T20:26:56;10.73;;;7.38;;
27576;SDS011;15011;53.380;10.034;2022-08-19T20:31:57;10.70;;;8.73;;
27576;SDS011;15011;53.380;10.034;2022-08-19T20:36:58;11.27;;;9.00;;
27576;SDS011;15011;53.380;10.034;2022-08-19T20:41:58;10.30;;;8.70;;
27576;SDS011;15011;53.380;10.034;2022-08-19T20:46:59;11.03;;;9.30;;
27576;SDS011;15011;53.380;10.034;2022-08-19T20:52:00;11.43;;;10.23;;
27576;SDS011;15011;53.380;10.034;2022-08-19T20:57:02;10.95;;;9.10;;
27576;SDS011;15011;53.380;10.034;2022-08-19T21:02:04;32.45;;;24.20;;
27576;SDS011;15011;53.380;10.034;2022-08-19T21:07:04;13.65;;;11.25;;
27576;SDS011;15011;53.380;10.034;2022-08-19T21:12:07;11.65;;;10.45;;
27576;SDS011;15011;53.380;10.034;2022-08-19T21:17:08;12.40;;;9.47;;
27576;SDS011;15011;53.380;10.034;2022-08-19T21:22:08;17.45;;;14.38;;
27576;SDS011;15011;53.380;10.034;2022-08-19T21:27:09;11.98;;;10.15;;
27576;SDS011;15011;53.380;10.034;2022-08-19T21:32:09;12.60;;;10.00;;
27576;SDS011;15011;53.380;10.034;2022-08-19T21:37:10;12.68;;;11.38;;
27576;SDS011;15011;53.380;10.034;2022-08-19T21:42:11;11.50;;;10.30;;
27576;SDS011;15011;53.380;10.034;2022-08-19T21:47:13;15.82;;;11.98;;
27576;SDS011;15011;53.380;10.034;2022-08-19T21:52:19;14.00;;;11.93;;
27576;SDS011;15011;53.380;10.034;2022-08-19T21:57:21;14.10;;;11.60;;
27576;SDS011;15011;53.380;10.034;2022-08-19T22:02:23;15.95;;;11.70;;
27576;SDS011;15011;53.380;10.034;2022-08-19T22:07:24;12.50;;;11.23;;
27576;SDS011;15011;53.380;10.034;2022-08-19T22:12:26;16.52;;;13.15;;
27576;SDS011;15011;53.380;10.034;2022-08-19T22:17:27;16.58;;;14.38;;
27576;SDS011;15011;53.380;10.034;2022-08-19T22:22:29;16.02;;;12.68;;
27576;SDS011;15011;53.380;10.034;2022-08-19T22:27:31;13.68;;;11.93;;
27576;SDS011;15011;53.380;10.034;2022-08-19T22:32:31;18.05;;;13.88;;
27576;SDS011;15011;53.380;10.034;2022-08-19T22:37:32;17.53;;;13.73;;
27576;SDS011;15011;53.380;10.034;2022-08-19T22:42:34;15.60;;;13.95;;
27576;SDS011;15011;53.380;10.034;2022-08-19T22:47:34;15.70;;;13.40;;
27576;SDS011;15011;53.380;10.034;2022-08-19T22:52:36;17.25;;;13.90;;
27576;SDS011;15011;53.380;10.034;2022-08-19T22:57:36;17.60;;;13.55;;
27576;SDS011;15011;53.380;10.034;2022-08-19T23:02:37;15.98;;;13.20;;
27576;SDS011;15011;53.380;10.034;2022-08-19T23:07:38;16.75;;;14.63;;
27576;SDS011;15011;53.380;10.034;2022-08-19T23:12:39;16.92;;;13.50;;
27576;SDS011;15011;53.380;10.034;2022-08-19T23:17:44;18.63;;;13.48;;
27576;SDS011;15011;53.380;10.034;2022-08-19T23:22:45;20.02;;;14.50;;
27576;SDS011;15011;53.380;10.034;2022-08-19T23:27:51;19.70;;;14.27;;
27576;SDS011;15011;53.380;10.034;2022-08-19T23:33:15;16.67;;;14.00;;
27576;SDS011;15011;53.380;10.034;2022-08-19T23:38:23;17.27;;;12.60;;
27576;SDS011;15011;53.380;10.034;2022-08-19T23:43:24;15.13;;;13.52;;
27576;SDS011;15011;53.380;10.034;2022-08-19T23:48:30;17.02;;;14.13;;
27576;SDS011;15011;53.380;10.034;2022-08-19T23:53:32;19.42;;;15.90;;
27576;SDS011;15011;53.380;10.034;2022-08-19T23:58:33;21.42;;;14.05;;
